Time;durP1;ratioP1;P1;durP2;ratioP2;P2;SDS_P1;SDS_P2;PMS_P1;PMS_P2;Temp;Humidity;BMP_temperature;BMP_pressure;BME280_temperature;BME280_humidity;BME280_pressure;Samples;Min_cycle;Max_cycle;Signal;HPM_P1;HPM_P2
2023/04/24 00:00:31;;;;;;;;;;;12.00;73.30;;;;;;5007924;28;20011;-86
2023/04/24 00:02:57;;;;;;;;;;;12.00;73.80;;;;;;5006941;28;20008;-85
2023/04/24 00:05:23;;;;;;;;;;;11.90;74.00;;;;;;5010049;28;19918;-85
2023/04/24 00:07:48;;;;;;;;;;;11.90;74.00;;;;;;5015795;28;19918;-86
2023/04/24 00:10:14;;;;;;;;;;;12.00;74.20;;;;;;5022688;28;19913;-84
2023/04/24 00:12:39;;;;;;;;;;;11.90;73.90;;;;;;5014302;28;19968;-84
2023/04/24 00:15:05;;;;;;;;;;;11.90;74.20;;;;;;5010176;28;20414;-84
2023/04/24 00:17:31;;;;;;;;;;;11.80;73.80;;;;;;5014018;28;19913;-84
2023/04/24 00:20:00;;;;;;;;;;;11.80;73.90;;;;;;5010943;28;19914;-84
2023/04/24 00:22:27;;;;;;;;;;;11.80;74.20;;;;;;5014693;28;19917;-84
2023/04/24 00:24:52;;;;;;;;;;;11.70;74.10;;;;;;5011129;28;19921;-84
2023/04/24 00:27:18;;;;;;;;;;;11.60;74.20;;;;;;5013366;28;19988;-85
2023/04/24 00:29:43;;;;;;;;;;;11.50;73.90;;;;;;5014991;28;19968;-84
2023/04/24 00:32:08;;;;;;;;;;;11.60;74.00;;;;;;5006160;28;19924;-85
2023/04/24 00:34:34;;;;;;;;;;;11.50;74.20;;;;;;5009203;28;19920;-85
2023/04/24 00:37:00;;;;;;;;;;;11.40;74.50;;;;;;5014352;28;19928;-84
2023/04/24 00:39:25;;;;;;;;;;;11.40;74.60;;;;;;5014531;28;19917;-84
2023/04/24 00:41:51;;;;;;;;;;;11.40;74.20;;;;;;5008410;28;20279;-85
2023/04/24 00:44:16;;;;;;;;;;;11.30;74.20;;;;;;5011799;28;19919;-85
2023/04/24 00:46:42;;;;;;;;;;;11.30;74.10;;;;;;5009794;28;19977;-86
2023/04/24 00:49:07;;;;;;;;;;;11.20;74.80;;;;;;5005463;28;19988;-86
2023/04/24 00:51:34;;;;;;;;;;;11.20;74.60;;;;;;5017862;28;19917;-86
2023/04/24 00:54:00;;;;;;;;;;;11.10;74.20;;;;;;5028157;28;19920;-86
2023/04/24 00:56:26;;;;;;;;;;;11.20;74.30;;;;;;5019736;28;19913;-86
2023/04/24 00:58:52;;;;;;;;;;;11.20;74.60;;;;;;5026219;28;20008;-86
2023/04/24 01:01:20;;;;;;;;;;;11.10;74.50;;;;;;5019452;28;19963;-86
2023/04/24 01:03:46;;;;;;;;;;;11.10;74.20;;;;;;5025793;28;19913;-86
2023/04/24 01:06:12;;;;;;;;;;;11.10;74.50;;;;;;5013149;28;19918;-86
2023/04/24 01:08:38;;;;;;;;;;;11.10;75.10;;;;;;5025414;28;20463;-86
2023/04/24 01:11:04;;;;;;;;;;;11.00;75.30;;;;;;5023866;28;19960;-86
2023/04/24 01:13:31;;;;;;;;;;;11.00;75.40;;;;;;5014852;28;19921;-86
2023/04/24 01:15:57;;;;;;;;;;;11.00;75.40;;;;;;5015987;28;19922;-85
2023/04/24 01:18:22;;;;;;;;;;;10.90;75.40;;;;;;5043621;28;19902;-85
2023/04/24 01:20:50;;;;;;;;;;;10.90;74.60;;;;;;5016681;28;19921;-85
2023/04/24 01:23:16;;;;;;;;;;;10.90;74.40;;;;;;5023890;28;19936;-85
2023/04/24 01:25:42;;;;;;;;;;;10.90;74.70;;;;;;5023224;28;19917;-85
2023/04/24 01:31:11;;;;;;;;;;;10.90;74.20;;;;;;5008909;28;19920;-85
2023/04/24 01:33:36;;;;;;;;;;;11.00;73.30;;;;;;5005577;28;19913;-85
2023/04/24 01:36:02;;;;;;;;;;;11.00;73.20;;;;;;5006039;28;19914;-85
2023/04/24 01:38:27;;;;;;;;;;;11.10;72.60;;;;;;5011395;28;20371;-85
2023/04/24 01:40:53;;;;;;;;;;;11.00;72.80;;;;;;5015208;28;19928;-85
2023/04/24 01:43:19;;;;;;;;;;;11.10;72.60;;;;;;5005004;28;19915;-86
2023/04/24 01:45:44;;;;;;;;;;;11.00;72.20;;;;;;5009973;28;19920;-85
2023/04/24 01:48:11;;;;;;;;;;;11.00;72.60;;;;;;5009512;28;19993;-86
2023/04/24 01:50:36;;;;;;;;;;;11.00;73.10;;;;;;5024656;28;19921;-86
2023/04/24 01:53:02;;;;;;;;;;;11.00;73.10;;;;;;5015750;28;19920;-85
2023/04/24 01:55:27;;;;;;;;;;;11.00;73.50;;;;;;5011423;28;19917;-85
2023/04/24 01:57:55;;;;;;;;;;;11.00;73.60;;;;;;5016045;28;19913;-85
2023/04/24 02:00:20;;;;;;;;;;;11.00;73.70;;;;;;5003882;28;20358;-86
2023/04/24 02:02:45;;;;;;;;;;;10.80;74.10;;;;;;5005844;28;19921;-86
2023/04/24 02:05:11;;;;;;;;;;;10.80;74.40;;;;;;5020479;28;19921;-86
2023/04/24 02:07:36;;;;;;;;;;;10.60;75.00;;;;;;5022556;28;19931;-85
2023/04/24 02:10:03;;;;;;;;;;;10.70;74.70;;;;;;5022102;28;19921;-85
2023/04/24 02:12:29;;;;;;;;;;;10.60;74.70;;;;;;5018495;28;19992;-86
2023/04/24 02:14:54;;;;;;;;;;;10.50;75.30;;;;;;5007363;28;20299;-86
2023/04/24 02:17:20;;;;;;;;;;;10.50;75.40;;;;;;5017274;28;20315;-86
2023/04/24 02:19:46;;;;;;;;;;;10.50;75.40;;;;;;5010563;28;19913;-86
2023/04/24 02:22:11;;;;;;;;;;;10.50;75.50;;;;;;5019684;28;19924;-85
2023/04/24 02:24:37;;;;;;;;;;;10.40;75.60;;;;;;5016777;28;19977;-86
2023/04/24 02:27:03;;;;;;;;;;;10.40;75.30;;;;;;5023136;28;19917;-86
2023/04/24 02:29:28;;;;;;;;;;;10.30;75.90;;;;;;5015504;28;19924;-86
2023/04/24 02:31:54;;;;;;;;;;;10.20;75.90;;;;;;5020703;28;19913;-86
2023/04/24 02:34:19;;;;;;;;;;;10.20;75.80;;;;;;5015513;28;20307;-85
2023/04/24 02:36:44;;;;;;;;;;;10.10;76.70;;;;;;5037623;28;19901;-85
2023/04/24 02:39:10;;;;;;;;;;;10.00;76.70;;;;;;5024637;28;19917;-86
2023/04/24 02:41:35;;;;;;;;;;;9.90;77.30;;;;;;5023787;28;19917;-86
2023/04/24 02:44:01;;;;;;;;;;;9.80;77.50;;;;;;5014657;28;19913;-86
2023/04/24 02:46:26;;;;;;;;;;;9.90;77.50;;;;;;5034406;28;19967;-85
2023/04/24 02:48:52;;;;;;;;;;;9.90;77.70;;;;;;5035562;28;19944;-86
2023/04/24 02:51:17;;;;;;;;;;;9.90;77.20;;;;;;5014393;28;19917;-85
2023/04/24 02:53:43;;;;;;;;;;;9.90;77.50;;;;;;5010617;28;20060;-86
2023/04/24 02:56:08;;;;;;;;;;;9.90;77.40;;;;;;5014929;28;20307;-86
2023/04/24 02:58:35;;;;;;;;;;;9.90;77.70;;;;;;5020816;28;20387;-86
2023/04/24 03:01:00;;;;;;;;;;;9.90;77.50;;;;;;5016554;28;19917;-86
2023/04/24 03:03:26;;;;;;;;;;;9.90;77.60;;;;;;5020884;28;19913;-86
2023/04/24 03:05:51;;;;;;;;;;;9.90;77.80;;;;;;5021069;28;19944;-86
2023/04/24 03:08:20;;;;;;;;;;;9.90;77.90;;;;;;5019636;28;20016;-86
2023/04/24 03:10:45;;;;;;;;;;;10.00;78.00;;;;;;5022382;28;19913;-87
2023/04/24 03:13:11;;;;;;;;;;;9.90;78.30;;;;;;5022518;28;19924;-86
2023/04/24 03:15:36;;;;;;;;;;;10.00;78.00;;;;;;5021428;28;19940;-87
2023/04/24 03:18:02;;;;;;;;;;;10.00;77.80;;;;;;5021667;28;19913;-87
2023/04/24 03:20:28;;;;;;;;;;;10.10;78.00;;;;;;5008505;28;20012;-86
2023/04/24 03:22:53;;;;;;;;;;;10.10;77.80;;;;;;5008553;28;19913;-87
2023/04/24 03:25:18;;;;;;;;;;;10.10;78.00;;;;;;5008783;28;20281;-87
2023/04/24 03:27:44;;;;;;;;;;;10.10;77.90;;;;;;5004512;28;20306;-86
2023/04/24 03:30:10;;;;;;;;;;;10.10;77.70;;;;;;5005354;28;19914;-86
2023/04/24 03:32:35;;;;;;;;;;;10.10;77.90;;;;;;5002332;28;19917;-87
2023/04/24 03:35:01;;;;;;;;;;;10.10;78.00;;;;;;5003793;28;19922;-87
2023/04/24 03:37:26;;;;;;;;;;;10.00;78.30;;;;;;5003797;28;19917;-87
2023/04/24 03:39:52;;;;;;;;;;;10.10;78.40;;;;;;5004393;28;19932;-87
2023/04/24 03:42:17;;;;;;;;;;;10.10;78.30;;;;;;5004325;28;19960;-86
2023/04/24 03:44:42;;;;;;;;;;;10.10;78.20;;;;;;5004670;28;19979;-86
2023/04/24 03:47:08;;;;;;;;;;;10.10;77.80;;;;;;5005212;28;19929;-87
2023/04/24 03:49:33;;;;;;;;;;;10.10;78.10;;;;;;5002455;28;19918;-86
2023/04/24 03:51:59;;;;;;;;;;;10.10;78.00;;;;;;5033810;28;19940;-87
2023/04/24 03:54:24;;;;;;;;;;;10.20;77.80;;;;;;5009210;28;20368;-88
2023/04/24 03:56:50;;;;;;;;;;;10.20;77.70;;;;;;5004867;28;20416;-86
2023/04/24 03:59:15;;;;;;;;;;;10.20;78.00;;;;;;5002730;28;20387;-86
2023/04/24 04:01:41;;;;;;;;;;;10.10;78.10;;;;;;5003998;28;20371;-85
2023/04/24 04:04:06;;;;;;;;;;;10.10;78.10;;;;;;5005621;28;19920;-86
2023/04/24 04:06:32;;;;;;;;;;;10.10;77.80;;;;;;5006824;28;19924;-86
2023/04/24 04:08:57;;;;;;;;;;;10.10;78.10;;;;;;5005901;28;20017;-86
2023/04/24 04:11:23;;;;;;;;;;;10.10;77.90;;;;;;5005035;28;19966;-85
2023/04/24 04:13:49;;;;;;;;;;;10.10;78.00;;;;;;5019405;28;19929;-86
2023/04/24 04:16:16;;;;;;;;;;;10.10;78.40;;;;;;5028255;28;19921;-85
2023/04/24 04:18:42;;;;;;;;;;;10.10;77.70;;;;;;5005190;28;20008;-85
2023/04/24 04:21:07;;;;;;;;;;;10.20;77.60;;;;;;5029886;23;20237;-84
2023/04/24 04:23:33;;;;;;;;;;;10.10;77.80;;;;;;5006078;28;19922;-85
2023/04/24 04:25:58;;;;;;;;;;;10.10;78.10;;;;;;5009132;28;20474;-85
2023/04/24 04:28:24;;;;;;;;;;;10.10;77.90;;;;;;5006146;28;19929;-84
2023/04/24 04:30:53;;;;;;;;;;;10.10;77.80;;;;;;5005423;28;19918;-85
2023/04/24 04:33:25;;;;;;;;;;;10.10;77.90;;;;;;5009637;28;19921;-84
2023/04/24 04:35:56;;;;;;;;;;;10.10;77.90;;;;;;5007766;28;19964;-85
2023/04/24 04:38:22;;;;;;;;;;;10.10;78.00;;;;;;5007200;28;20289;-84
2023/04/24 04:40:56;;;;;;;;;;;10.10;78.00;;;;;;5005776;28;19971;-84
2023/04/24 04:43:22;;;;;;;;;;;10.10;77.80;;;;;;5007227;28;19917;-84
2023/04/24 04:45:48;;;;;;;;;;;10.10;77.70;;;;;;5006654;28;19917;-84
2023/04/24 04:48:19;;;;;;;;;;;10.10;77.60;;;;;;5017546;28;19929;-84
2023/04/24 04:50:45;;;;;;;;;;;10.10;77.70;;;;;;5022888;28;19913;-85
2023/04/24 04:53:10;;;;;;;;;;;10.20;77.10;;;;;;5010658;28;20379;-84
2023/04/24 04:55:47;;;;;;;;;;;10.20;77.30;;;;;;5010399;28;19957;-84
2023/04/24 04:58:13;;;;;;;;;;;10.20;77.20;;;;;;5025092;28;19914;-85
2023/04/24 05:00:42;;;;;;;;;;;10.10;77.40;;;;;;5006767;28;20346;-85
2023/04/24 05:03:13;;;;;;;;;;;10.20;77.20;;;;;;5008672;28;19914;-86
2023/04/24 05:05:40;;;;;;;;;;;10.10;77.20;;;;;;5008218;28;20006;-85
2023/04/24 05:08:09;;;;;;;;;;;10.20;77.20;;;;;;5010551;28;19917;-85
2023/04/24 05:10:43;;;;;;;;;;;10.20;77.10;;;;;;5007466;28;20406;-84
2023/04/24 05:13:09;;;;;;;;;;;10.10;77.30;;;;;;5023143;28;19914;-83
2023/04/24 05:15:35;;;;;;;;;;;10.10;77.50;;;;;;5007445;28;19991;-84
2023/04/24 05:18:00;;;;;;;;;;;10.10;77.20;;;;;;5011190;28;20016;-84
2023/04/24 05:20:29;;;;;;;;;;;10.20;77.40;;;;;;5014416;28;20090;-83
2023/04/24 05:23:01;;;;;;;;;;;10.20;77.20;;;;;;5015285;28;19925;-82
2023/04/24 05:25:29;;;;;;;;;;;10.20;77.20;;;;;;5018417;28;19952;-81
2023/04/24 05:27:55;;;;;;;;;;;10.20;77.00;;;;;;5005855;28;20638;-83
2023/04/24 05:30:23;;;;;;;;;;;10.20;77.10;;;;;;5018377;28;19917;-84
2023/04/24 05:32:51;;;;;;;;;;;10.20;76.90;;;;;;5018838;28;20863;-83
2023/04/24 05:35:18;;;;;;;;;;;10.30;77.10;;;;;;5011327;28;19940;-83
2023/04/24 05:37:54;;;;;;;;;;;10.50;76.10;;;;;;5007389;28;19914;-83
2023/04/24 05:40:19;;;;;;;;;;;10.60;75.80;;;;;;5003506;28;19945;-84
2023/04/24 05:42:54;;;;;;;;;;;10.50;75.30;;;;;;5034873;28;19932;-82
2023/04/24 05:45:20;;;;;;;;;;;10.30;75.90;;;;;;5023564;28;19914;-81
2023/04/24 05:47:45;;;;;;;;;;;10.30;76.10;;;;;;5034221;28;20172;-81
2023/04/24 05:50:11;;;;;;;;;;;10.20;76.80;;;;;;5025915;28;19929;-82
2023/04/24 05:52:39;;;;;;;;;;;10.20;78.00;;;;;;5026708;28;20017;-82
2023/04/24 05:55:07;;;;;;;;;;;10.10;79.10;;;;;;5040338;28;19963;-83
2023/04/24 05:57:33;;;;;;;;;;;10.00;80.00;;;;;;4995313;28;19914;-82
2023/04/24 05:59:58;;;;;;;;;;;9.90;80.70;;;;;;5013842;28;19917;-82
2023/04/24 06:02:24;;;;;;;;;;;9.80;82.00;;;;;;5012191;28;19919;-82
2023/04/24 06:04:52;;;;;;;;;;;9.70;82.30;;;;;;5007237;28;19914;-82
2023/04/24 06:07:18;;;;;;;;;;;9.70;82.90;;;;;;5021465;28;19923;-84
2023/04/24 06:09:44;;;;;;;;;;;9.60;83.10;;;;;;5006177;28;19945;-83
2023/04/24 06:12:09;;;;;;;;;;;9.70;83.20;;;;;;5017233;28;19925;-82
2023/04/24 06:14:35;;;;;;;;;;;9.60;83.00;;;;;;5009811;28;20502;-83
2023/04/24 06:17:00;;;;;;;;;;;9.60;82.60;;;;;;5027780;28;20018;-84
2023/04/24 06:19:26;;;;;;;;;;;9.70;82.80;;;;;;5025963;28;19913;-84
2023/04/24 06:21:51;;;;;;;;;;;9.80;82.90;;;;;;5018155;28;20001;-82
2023/04/24 06:24:17;;;;;;;;;;;9.80;82.90;;;;;;5021155;28;20064;-83
2023/04/24 06:26:42;;;;;;;;;;;9.70;82.70;;;;;;5018580;28;19914;-83
2023/04/24 06:29:08;;;;;;;;;;;9.80;82.20;;;;;;5015626;28;20012;-82
2023/04/24 06:31:36;;;;;;;;;;;9.70;82.20;;;;;;5009989;28;19918;-83
2023/04/24 06:34:02;;;;;;;;;;;9.70;81.70;;;;;;5015393;28;19910;-84
2023/04/24 06:36:28;;;;;;;;;;;9.70;82.40;;;;;;5033225;28;19977;-83
2023/04/24 06:38:53;;;;;;;;;;;9.70;82.20;;;;;;5017194;28;20007;-84
2023/04/24 06:41:19;;;;;;;;;;;9.70;81.90;;;;;;5013740;28;19914;-83
2023/04/24 06:43:44;;;;;;;;;;;9.80;81.80;;;;;;5012149;28;19948;-84
2023/04/24 06:46:12;;;;;;;;;;;9.70;81.80;;;;;;5011459;28;20467;-85
2023/04/24 06:48:38;;;;;;;;;;;9.70;81.20;;;;;;5016622;28;20636;-84
2023/04/24 06:51:06;;;;;;;;;;;9.80;81.20;;;;;;5010569;28;20283;-84
2023/04/24 06:53:32;;;;;;;;;;;9.90;80.60;;;;;;5003444;28;20403;-84
2023/04/24 06:55:57;;;;;;;;;;;9.90;80.80;;;;;;5009544;28;19972;-84
2023/04/24 06:58:24;;;;;;;;;;;10.00;81.40;;;;;;5014575;28;19913;-83
2023/04/24 07:00:54;;;;;;;;;;;10.10;80.60;;;;;;5014905;28;20290;-85
2023/04/24 07:03:23;;;;;;;;;;;10.30;80.80;;;;;;5014404;28;19959;-84
2023/04/24 07:05:57;;;;;;;;;;;10.40;80.50;;;;;;5013045;28;19922;-84
2023/04/24 07:08:23;;;;;;;;;;;10.50;79.60;;;;;;5014940;28;20004;-83
2023/04/24 07:10:49;;;;;;;;;;;10.60;79.90;;;;;;5014435;28;19973;-84
2023/04/24 07:13:15;;;;;;;;;;;10.60;80.00;;;;;;4995960;28;19910;-84
2023/04/24 07:15:41;;;;;;;;;;;10.40;81.10;;;;;;5012504;28;19921;-83
2023/04/24 07:18:06;;;;;;;;;;;10.20;81.60;;;;;;5011953;28;19944;-84
2023/04/24 07:20:33;;;;;;;;;;;10.10;82.40;;;;;;5009914;28;19909;-83
2023/04/24 07:22:58;;;;;;;;;;;10.00;82.20;;;;;;5013955;28;19993;-83
2023/04/24 07:25:23;;;;;;;;;;;10.10;82.60;;;;;;5014462;28;19914;-83
2023/04/24 07:27:49;;;;;;;;;;;10.10;81.80;;;;;;5011471;28;19925;-82
2023/04/24 07:30:14;;;;;;;;;;;10.20;82.10;;;;;;5020277;28;20028;-83
2023/04/24 07:32:40;;;;;;;;;;;10.20;81.80;;;;;;5013787;28;19917;-83
2023/04/24 07:35:06;;;;;;;;;;;10.20;81.90;;;;;;5012895;28;19914;-83
2023/04/24 07:37:31;;;;;;;;;;;10.20;81.10;;;;;;5014921;28;19909;-84
2023/04/24 07:39:57;;;;;;;;;;;10.10;80.90;;;;;;5017560;28;19918;-84
2023/04/24 07:42:22;;;;;;;;;;;10.00;81.60;;;;;;5004812;28;19924;-83
2023/04/24 07:44:48;;;;;;;;;;;10.00;81.80;;;;;;5006585;28;19972;-84
2023/04/24 07:47:15;;;;;;;;;;;9.90;81.70;;;;;;5028481;28;20021;-83
2023/04/24 07:49:41;;;;;;;;;;;9.90;81.30;;;;;;5014991;28;19937;-83
2023/04/24 07:52:06;;;;;;;;;;;9.80;81.90;;;;;;5028727;28;19989;-82
2023/04/24 07:54:32;;;;;;;;;;;9.80;82.50;;;;;;5011466;28;20020;-83
2023/04/24 07:56:57;;;;;;;;;;;9.90;83.10;;;;;;5009177;28;19945;-84
2023/04/24 07:59:23;;;;;;;;;;;9.90;83.00;;;;;;5022412;28;19928;-84
2023/04/24 08:01:48;;;;;;;;;;;9.80;83.10;;;;;;5012864;28;20367;-84
2023/04/24 08:04:14;;;;;;;;;;;9.80;83.50;;;;;;5002576;28;19914;-84
2023/04/24 08:06:39;;;;;;;;;;;9.90;82.50;;;;;;5030850;28;19948;-83
2023/04/24 08:09:05;;;;;;;;;;;10.00;82.50;;;;;;5027348;28;19913;-82
2023/04/24 08:11:31;;;;;;;;;;;10.20;82.30;;;;;;5035063;28;19918;-86
2023/04/24 08:13:59;;;;;;;;;;;10.30;81.40;;;;;;5009822;28;19925;-87
2023/04/24 08:16:40;;;;;;;;;;;10.20;80.30;;;;;;5009534;28;19917;-88
2023/04/24 08:19:08;;;;;;;;;;;10.10;79.80;;;;;;5016163;28;19928;-87
2023/04/24 08:21:44;;;;;;;;;;;;;;;;;;;;;
2023/04/24 08:24:30;;;;;;;;;;;9.90;81.20;;;;;;5012988;28;19922;-85
2023/04/24 08:26:57;;;;;;;;;;;9.90;81.90;;;;;;5021598;28;19928;-84
2023/04/24 08:29:45;;;;;;;;;;;9.80;81.40;;;;;;5014884;28;20388;-87
2023/04/24 08:32:10;;;;;;;;;;;9.90;81.10;;;;;;5044169;23;19925;-81
2023/04/24 08:34:36;;;;;;;;;;;9.80;80.80;;;;;;5009158;28;20297;-82
2023/04/24 08:37:02;;;;;;;;;;;9.70;81.30;;;;;;5007354;28;20027;-84
2023/04/24 08:39:27;;;;;;;;;;;9.60;81.40;;;;;;5003215;28;19914;-82
2023/04/24 08:41:53;;;;;;;;;;;9.60;82.20;;;;;;5006738;28;19924;-82
2023/04/24 08:44:19;;;;;;;;;;;9.60;82.50;;;;;;5012400;28;19913;-82
2023/04/24 08:46:45;;;;;;;;;;;9.60;82.30;;;;;;5013703;28;19956;-82
2023/04/24 08:49:12;;;;;;;;;;;9.50;82.90;;;;;;5022246;28;20019;-81
2023/04/24 08:51:38;;;;;;;;;;;9.50;83.00;;;;;;5022756;28;19914;-82
2023/04/24 08:54:04;;;;;;;;;;;9.40;83.20;;;;;;5022227;28;19910;-82
2023/04/24 08:56:32;;;;;;;;;;;9.40;83.60;;;;;;5016694;28;20204;-83
2023/04/24 08:58:57;;;;;;;;;;;9.30;84.50;;;;;;5010742;28;20033;-83
2023/04/24 09:01:24;;;;;;;;;;;9.30;84.40;;;;;;5017498;28;19913;-82
2023/04/24 09:03:51;;;;;;;;;;;9.30;85.00;;;;;;5016591;28;19940;-82
2023/04/24 09:06:17;;;;;;;;;;;9.30;85.70;;;;;;5006798;28;20025;-83
2023/04/24 09:08:43;;;;;;;;;;;9.30;86.00;;;;;;5008767;28;20649;-84
2023/04/24 09:11:11;;;;;;;;;;;9.20;86.20;;;;;;5006044;28;21903;-85
2023/04/24 09:13:36;;;;;;;;;;;9.10;86.50;;;;;;5000719;28;19917;-83
2023/04/24 09:16:02;;;;;;;;;;;9.00;87.20;;;;;;5003402;28;20012;-79
2023/04/24 09:18:27;;;;;;;;;;;9.10;87.90;;;;;;5000032;28;19921;-82
2023/04/24 09:21:09;;;;;;;;;;;9.10;87.80;;;;;;4995807;28;19914;-82
2023/04/24 09:23:34;;;;;;;;;;;9.20;88.00;;;;;;4992221;28;20246;-83
2023/04/24 09:26:01;;;;;;;;;;;9.20;87.70;;;;;;5000671;28;19924;-83
2023/04/24 09:28:30;;;;;;;;;;;9.20;87.80;;;;;;5012835;28;19924;-83
2023/04/24 09:31:09;;;;;;;;;;;9.10;87.50;;;;;;5009916;28;20047;-84
2023/04/24 09:33:35;;;;;;;;;;;9.10;88.30;;;;;;5004488;28;19918;-82
2023/04/24 09:36:02;;;;;;;;;;;9.30;88.50;;;;;;5008737;28;19948;-83
2023/04/24 09:38:37;;;;;;;;;;;9.30;88.50;;;;;;4993383;28;19909;-81
2023/04/24 09:41:04;;;;;;;;;;;9.50;88.00;;;;;;5000640;28;20016;-83
2023/04/24 09:43:30;;;;;;;;;;;9.50;87.80;;;;;;5000808;28;19917;-82
2023/04/24 09:45:56;;;;;;;;;;;9.60;87.50;;;;;;4997146;28;20288;-81
2023/04/24 09:48:35;;;;;;;;;;;9.60;87.10;;;;;;5003510;28;19925;-83
2023/04/24 09:51:01;;;;;;;;;;;9.60;87.90;;;;;;4999454;28;19918;-83
2023/04/24 09:53:27;;;;;;;;;;;9.60;88.00;;;;;;5006087;28;19967;-84
2023/04/24 09:55:53;;;;;;;;;;;9.70;88.10;;;;;;5018226;28;19941;-80
2023/04/24 09:58:24;;;;;;;;;;;9.70;87.80;;;;;;5019061;28;19913;-82
2023/04/24 10:00:52;;;;;;;;;;;9.60;88.00;;;;;;5019058;28;19914;-82
2023/04/24 10:03:18;;;;;;;;;;;9.60;88.50;;;;;;5012814;28;19910;-79
2023/04/24 10:05:46;;;;;;;;;;;9.70;88.80;;;;;;5001598;28;20426;-81
2023/04/24 10:08:11;;;;;;;;;;;9.70;87.60;;;;;;5012648;28;20280;-83
2023/04/24 10:10:46;;;;;;;;;;;9.60;87.00;;;;;;5016532;28;19917;-84
2023/04/24 10:13:12;;;;;;;;;;;9.40;86.20;;;;;;5014888;28;19917;-85
2023/04/24 10:15:38;;;;;;;;;;;9.30;86.90;;;;;;5010999;28;19917;-83
2023/04/24 10:18:06;;;;;;;;;;;9.10;86.80;;;;;;5013476;28;19918;-83
2023/04/24 10:20:32;;;;;;;;;;;9.10;87.50;;;;;;5009662;28;19914;-79
2023/04/24 10:22:58;;;;;;;;;;;9.00;87.60;;;;;;4999329;28;19909;-82
2023/04/24 10:25:25;;;;;;;;;;;9.00;88.90;;;;;;5028033;22;19901;-78
2023/04/24 10:27:51;;;;;;;;;;;8.80;87.50;;;;;;5011672;28;19929;-79
2023/04/24 10:30:17;;;;;;;;;;;8.80;88.10;;;;;;5022949;28;19913;-78
2023/04/24 10:32:42;;;;;;;;;;;8.80;88.30;;;;;;5025137;28;19959;-78
2023/04/24 10:35:09;;;;;;;;;;;8.80;88.20;;;;;;5032579;28;19913;-79
2023/04/24 10:37:38;;;;;;;;;;;8.60;88.10;;;;;;5026064;28;19959;-78
2023/04/24 10:40:05;;;;;;;;;;;8.80;88.30;;;;;;5020144;28;19937;-79
2023/04/24 10:42:31;;;;;;;;;;;8.70;87.90;;;;;;5028848;28;19917;-79
2023/04/24 10:44:57;;;;;;;;;;;8.70;87.90;;;;;;5022235;28;21057;-79
2023/04/24 10:47:23;;;;;;;;;;;8.80;88.40;;;;;;5003502;28;19933;-79
2023/04/24 10:49:50;;;;;;;;;;;8.80;88.40;;;;;;5010857;28;19920;-79
2023/04/24 10:52:16;;;;;;;;;;;9.00;89.40;;;;;;5004937;28;19964;-79
2023/04/24 10:54:45;;;;;;;;;;;9.20;89.00;;;;;;5029750;28;20323;-79
2023/04/24 10:57:23;;;;;;;;;;;9.40;88.90;;;;;;5027146;28;20374;-78
2023/04/24 11:00:08;;;;;;;;;;;9.40;88.40;;;;;;5012139;28;19924;-78
2023/04/24 11:02:35;;;;;;;;;;;9.30;88.40;;;;;;5004473;28;19913;-78
2023/04/24 11:05:03;;;;;;;;;;;9.30;88.50;;;;;;5028328;28;19921;-78
2023/04/24 11:07:28;;;;;;;;;;;9.30;88.10;;;;;;5026925;28;19992;-78
2023/04/24 11:10:00;;;;;;;;;;;9.20;87.60;;;;;;5017798;28;20368;-78
2023/04/24 11:12:26;;;;;;;;;;;9.30;87.90;;;;;;5023228;28;19971;-79
2023/04/24 11:14:55;;;;;;;;;;;9.30;88.10;;;;;;5030993;28;20042;-78
2023/04/24 11:17:28;;;;;;;;;;;9.30;88.50;;;;;;5006164;28;19913;-78
2023/04/24 11:20:00;;;;;;;;;;;9.20;88.50;;;;;;5032728;28;19909;-78
2023/04/24 11:22:28;;;;;;;;;;;9.30;88.20;;;;;;5013088;28;19913;-78
2023/04/24 11:24:53;;;;;;;;;;;9.40;87.90;;;;;;5025713;28;19969;-78
2023/04/24 11:27:20;;;;;;;;;;;9.40;88.30;;;;;;5018991;28;19931;-79
2023/04/24 11:29:54;;;;;;;;;;;9.40;88.10;;;;;;5007412;28;19949;-78
2023/04/24 11:32:24;;;;;;;;;;;9.50;88.30;;;;;;5009357;28;19922;-78
2023/04/24 11:34:51;;;;;;;;;;;9.50;88.50;;;;;;5017100;28;19917;-78
2023/04/24 11:37:17;;;;;;;;;;;9.60;88.00;;;;;;5018272;28;20300;-78
2023/04/24 11:39:42;;;;;;;;;;;9.60;87.70;;;;;;4996490;28;19917;-80
2023/04/24 11:42:08;;;;;;;;;;;9.60;87.80;;;;;;5046597;28;19913;-80
2023/04/24 11:44:36;;;;;;;;;;;9.70;87.90;;;;;;5052666;28;20008;-80
2023/04/24 11:47:06;;;;;;;;;;;9.60;87.50;;;;;;5030370;28;19956;-79
2023/04/24 11:49:32;;;;;;;;;;;9.70;87.60;;;;;;5003122;28;19948;-79
2023/04/24 11:51:58;;;;;;;;;;;10.00;87.10;;;;;;5034469;28;19967;-79
2023/04/24 11:54:23;;;;;;;;;;;10.10;87.00;;;;;;5021776;28;19917;-79
2023/04/24 11:56:49;;;;;;;;;;;10.10;87.20;;;;;;5000811;28;20372;-78
2023/04/24 11:59:14;;;;;;;;;;;10.10;87.10;;;;;;5009968;28;19925;-78
2023/04/24 12:01:44;;;;;;;;;;;10.10;86.80;;;;;;5039494;28;19920;-78
2023/04/24 12:04:10;;;;;;;;;;;10.10;86.70;;;;;;5027555;28;20241;-79
2023/04/24 12:06:36;;;;;;;;;;;10.00;85.60;;;;;;5022039;28;19909;-79
2023/04/24 12:09:01;;;;;;;;;;;10.00;85.90;;;;;;5028435;28;19928;-79
2023/04/24 12:11:26;;;;;;;;;;;9.80;86.60;;;;;;4998760;28;19920;-78
2023/04/24 12:13:52;;;;;;;;;;;9.70;86.60;;;;;;5016418;28;19913;-78
2023/04/24 12:16:18;;;;;;;;;;;9.60;86.20;;;;;;4995755;28;19916;-78
2023/04/24 12:18:44;;;;;;;;;;;9.60;86.50;;;;;;4995598;28;19973;-79
2023/04/24 12:21:20;;;;;;;;;;;9.60;86.10;;;;;;5009044;28;19941;-79
2023/04/24 12:23:45;;;;;;;;;;;9.50;86.50;;;;;;5044420;28;19909;-78
2023/04/24 12:26:11;;;;;;;;;;;9.60;84.80;;;;;;4999882;28;20395;-77
2023/04/24 12:28:38;;;;;;;;;;;9.60;84.90;;;;;;5020768;28;19917;-78
2023/04/24 12:31:04;;;;;;;;;;;9.80;84.40;;;;;;5023725;28;20765;-78
2023/04/24 12:33:33;;;;;;;;;;;10.10;83.60;;;;;;5002105;28;19913;-81
2023/04/24 12:35:58;;;;;;;;;;;10.40;84.70;;;;;;5007162;28;19910;-81
2023/04/24 12:38:25;;;;;;;;;;;10.60;83.20;;;;;;5034767;28;19913;-81
2023/04/24 12:41:04;;;;;;;;;;;10.80;83.40;;;;;;5002945;28;20404;-80
2023/04/24 12:43:30;;;;;;;;;;;10.90;81.80;;;;;;5008781;28;20622;-80
2023/04/24 12:45:55;;;;;;;;;;;10.80;80.90;;;;;;5034840;28;19913;-80
2023/04/24 12:48:22;;;;;;;;;;;10.60;80.70;;;;;;5013066;28;19913;-81
2023/04/24 12:50:47;;;;;;;;;;;10.60;80.40;;;;;;5022798;28;19913;-79
2023/04/24 12:53:13;;;;;;;;;;;10.40;79.10;;;;;;5035813;28;19915;-80
2023/04/24 12:55:38;;;;;;;;;;;10.30;79.10;;;;;;5022991;28;19914;-79
2023/04/24 12:58:04;;;;;;;;;;;10.30;80.10;;;;;;5004953;28;19913;-79
2023/04/24 13:00:29;;;;;;;;;;;10.20;80.50;;;;;;5016241;28;20438;-79
2023/04/24 13:02:55;;;;;;;;;;;10.00;80.90;;;;;;5004012;28;19913;-79
2023/04/24 13:05:20;;;;;;;;;;;10.10;80.50;;;;;;5027064;28;19917;-80
2023/04/24 13:07:46;;;;;;;;;;;10.10;80.70;;;;;;5014627;28;20310;-79
2023/04/24 13:10:13;;;;;;;;;;;10.00;80.80;;;;;;5014013;28;20043;-79
2023/04/24 13:12:38;;;;;;;;;;;10.00;81.00;;;;;;5014595;28;19920;-79
2023/04/24 13:15:04;;;;;;;;;;;10.10;81.00;;;;;;5033958;28;19909;-79
2023/04/24 13:17:30;;;;;;;;;;;10.30;80.00;;;;;;5000429;28;19917;-80
2023/04/24 13:19:55;;;;;;;;;;;10.50;80.60;;;;;;5029995;28;19932;-80
2023/04/24 13:22:21;;;;;;;;;;;10.60;80.80;;;;;;5004403;28;20404;-80
2023/04/24 13:24:48;;;;;;;;;;;10.60;79.80;;;;;;5014011;28;20515;-79
2023/04/24 13:27:14;;;;;;;;;;;10.70;76.70;;;;;;5008431;28;20016;-80
2023/04/24 13:29:40;;;;;;;;;;;10.80;77.50;;;;;;5013501;28;20408;-81
2023/04/24 13:32:05;;;;;;;;;;;10.90;78.50;;;;;;5028139;28;19913;-83
2023/04/24 13:34:31;;;;;;;;;;;10.80;75.80;;;;;;4996576;28;19920;-82
2023/04/24 13:36:57;;;;;;;;;;;10.60;76.00;;;;;;5027711;28;19921;-83
2023/04/24 13:39:23;;;;;;;;;;;10.50;74.60;;;;;;5013601;28;19909;-86
2023/04/24 13:41:48;;;;;;;;;;;10.50;75.40;;;;;;5005262;28;19913;-86
2023/04/24 13:44:15;;;;;;;;;;;10.50;74.20;;;;;;5007861;28;19987;-86
2023/04/24 13:46:40;;;;;;;;;;;10.30;74.80;;;;;;5039034;28;19917;-87
2023/04/24 13:49:06;;;;;;;;;;;10.30;74.80;;;;;;5013343;28;19929;-86
2023/04/24 13:51:32;;;;;;;;;;;10.30;73.50;;;;;;5019067;28;20364;-85
2023/04/24 13:53:57;;;;;;;;;;;10.30;75.40;;;;;;5003811;28;19914;-86
2023/04/24 13:56:23;;;;;;;;;;;10.30;74.40;;;;;;5011018;28;20411;-86
2023/04/24 13:58:48;;;;;;;;;;;10.30;73.50;;;;;;5004704;28;19917;-86
2023/04/24 14:01:15;;;;;;;;;;;10.20;75.60;;;;;;5015062;28;19909;-85
2023/04/24 14:03:41;;;;;;;;;;;10.20;74.40;;;;;;5010373;28;20011;-86
2023/04/24 14:06:06;;;;;;;;;;;10.20;75.20;;;;;;5025595;28;20487;-87
2023/04/24 14:08:32;;;;;;;;;;;10.20;74.40;;;;;;5019249;28;19917;-87
2023/04/24 14:10:57;;;;;;;;;;;10.20;74.60;;;;;;5002928;28;20262;-85
2023/04/24 14:13:23;;;;;;;;;;;10.30;74.80;;;;;;5006242;28;20039;-87
2023/04/24 14:15:48;;;;;;;;;;;10.40;75.60;;;;;;4999648;28;20394;-87
2023/04/24 14:18:14;;;;;;;;;;;10.60;75.60;;;;;;4997760;28;19945;-87
2023/04/24 14:20:40;;;;;;;;;;;10.90;75.30;;;;;;5016828;28;19916;-86
2023/04/24 14:23:05;;;;;;;;;;;11.10;72.30;;;;;;5029721;28;19963;-86